Time;durP1;ratioP1;P1;durP2;ratioP2;P2;SDS_P1;SDS_P2;PMS_P1;PMS_P2;Temp;Humidity;BMP_temperature;BMP_pressure;BME280_temperature;BME280_humidity;BME280_pressure;Samples;Min_cycle;Max_cycle;Signal;HPM_P1;HPM_P2
2023/02/13 00:01:06;;;;;;;;;;;;;;;-144.99;100.00;52505.16;5031703;28;19964;-66
2023/02/13 00:03:32;;;;;;;;;;;;;;;-144.99;100.00;52539.81;5031925;28;19994;-66
2023/02/13 00:05:59;;;;;;;;;;;;;;;-144.99;100.00;52537.78;5030404;28;19954;-68
2023/02/13 00:08:25;;;;;;;;;;;;;;;-144.99;100.00;52568.34;5031608;28;19938;-68
2023/02/13 00:10:52;;;;;;;;;;;;;;;-144.99;100.00;52529.63;5031317;28;20061;-68
2023/02/13 00:13:18;;;;;;;;;;;;;;;-144.99;100.00;52545.94;5035950;28;20060;-68
2023/02/13 00:15:54;;;;;;;;;;;;;;;-144.99;100.00;52529.63;5031249;28;20485;-68
2023/02/13 00:18:21;;;;;;;;;;;;;;;-144.99;100.00;52505.16;5033837;28;19960;-68
2023/02/13 00:20:56;;;;;;;;;;;;;;;-144.99;100.00;52511.28;5030279;28;19955;-68
2023/02/13 00:23:23;;;;;;;;;;;;;;;-144.99;100.00;52517.41;5025441;28;20048;-67
2023/02/13 00:25:49;;;;;;;;;;;;;;;-144.99;100.00;52537.78;5022273;28;19939;-67
2023/02/13 00:28:16;;;;;;;;;;;;;;;-144.99;100.00;52554.09;5022976;28;20000;-67
2023/02/13 00:30:42;;;;;;;;;;;;;;;-144.99;100.00;52509.25;5031518;28;20062;-66
2023/02/13 00:33:10;;;;;;;;;;;;;;;-144.99;100.00;52543.91;5032852;28;20547;-67
2023/02/13 00:35:37;;;;;;;;;;;;;;;-144.99;100.00;52509.25;5029189;28;19946;-67
2023/02/13 00:38:03;;;;;;;;;;;;;;;-144.99;100.00;52513.31;5030761;28;20009;-67
2023/02/13 00:40:30;;;;;;;;;;;;;;;-144.99;100.00;52550.00;5029211;28;19958;-68
2023/02/13 00:42:56;;;;;;;;;;;;;;;-144.99;100.00;52531.66;5025771;28;19956;-67
2023/02/13 00:45:23;;;;;;;;;;;;;;;-144.99;100.00;52513.31;5024868;28;19985;-68
2023/02/13 00:47:49;;;;;;;;;;;;;;;-144.99;100.00;52501.09;5036652;28;19940;-72
2023/02/13 00:50:17;;;;;;;;;;;;;;;-144.99;100.00;52554.09;5027089;28;20034;-62
2023/02/13 00:52:44;;;;;;;;;;;;;;;-144.99;100.00;52517.41;5034321;28;20660;-65
2023/02/13 00:55:10;;;;;;;;;;;;;;;-144.99;100.00;52517.41;5028698;28;20479;-65
2023/02/13 00:57:37;;;;;;;;;;;;;;;-144.99;100.00;52505.16;5037084;28;19961;-65
2023/02/13 01:00:03;;;;;;;;;;;;;;;-144.99;100.00;52545.94;5029848;28;20480;-64
2023/02/13 01:02:30;;;;;;;;;;;;;;;-144.99;100.00;52517.41;5030856;28;20450;-64
2023/02/13 01:04:56;;;;;;;;;;;;;;;-144.99;100.00;52505.16;5029439;28;19992;-64
2023/02/13 01:07:24;;;;;;;;;;;;;;;-144.99;100.00;52513.31;5029287;28;20428;-65
2023/02/13 01:09:51;;;;;;;;;;;;;;;-144.99;100.00;52517.41;5032000;28;19964;-64
2023/02/13 01:12:17;;;;;;;;;;;;;;;-144.99;100.00;52537.78;5031738;28;19979;-65
2023/02/13 01:14:44;;;;;;;;;;;;;;;-144.99;100.00;52545.94;5026573;28;19946;-63
2023/02/13 01:17:10;;;;;;;;;;;;;;;-144.99;100.00;52505.16;5028027;28;20006;-63
2023/02/13 01:19:37;;;;;;;;;;;;;;;-144.99;100.00;52539.81;5030047;28;19944;-63
2023/02/13 01:22:03;;;;;;;;;;;;;;;-144.99;100.00;52529.63;5033158;28;19998;-63
2023/02/13 01:24:32;;;;;;;;;;;;;;;-144.99;100.00;52488.84;5027319;28;20458;-63
2023/02/13 01:27:01;;;;;;;;;;;;;;;-144.99;100.00;52545.94;5030043;28;19946;-62
2023/02/13 01:29:27;;;;;;;;;;;;;;;-144.99;100.00;52497.00;5027023;28;19941;-71
2023/02/13 01:31:54;;;;;;;;;;;;;;;-144.99;100.00;52501.09;5028642;28;20125;-71
2023/02/13 01:34:20;;;;;;;;;;;;;;;-144.99;100.00;52521.47;5025992;28;19953;-71
2023/02/13 01:36:47;;;;;;;;;;;;;;;-144.99;100.00;52533.69;5034363;28;19999;-60
2023/02/13 01:39:13;;;;;;;;;;;;;;;-144.99;100.00;52545.94;5027744;28;19956;-70
2023/02/13 01:41:41;;;;;;;;;;;;;;;-144.99;100.00;52505.16;5020835;28;20473;-70
2023/02/13 01:44:23;;;;;;;;;;;;;;;-144.99;100.00;52533.69;5035486;28;20005;-69
2023/02/13 01:46:49;;;;;;;;;;;;;;;-144.99;100.00;52543.91;5024727;28;19945;-71
2023/02/13 01:49:18;;;;;;;;;;;;;;;-144.99;100.00;52529.63;5029044;28;20012;-69
2023/02/13 01:51:45;;;;;;;;;;;;;;;-144.99;100.00;52521.47;5027165;28;19987;-69
2023/02/13 01:54:13;;;;;;;;;;;;;;;-144.99;100.00;52517.41;5026453;28;19955;-68
2023/02/13 01:56:42;;;;;;;;;;;;;;;-144.99;100.00;52562.25;5031749;28;19982;-63
2023/02/13 01:59:11;;;;;;;;;;;;;;;-144.99;100.00;52545.94;5029798;28;19992;-63
2023/02/13 02:01:38;;;;;;;;;;;;;;;-144.99;100.00;52513.31;5029376;28;20000;-63
2023/02/13 02:04:07;;;;;;;;;;;;;;;-144.99;100.00;52545.94;5027694;28;19968;-63
2023/02/13 02:06:35;;;;;;;;;;;;;;;-144.99;100.00;52533.69;5029295;28;20038;-64
2023/02/13 02:09:04;;;;;;;;;;;;;;;-144.99;100.00;52529.63;5029244;28;19948;-63
2023/02/13 02:11:33;;;;;;;;;;;;;;;-144.99;100.00;52513.31;5026807;28;19962;-64
2023/02/13 02:14:01;;;;;;;;;;;;;;;-144.99;100.00;52541.84;5031982;28;20018;-64
2023/02/13 02:16:28;;;;;;;;;;;;;;;-144.99;100.00;52529.63;5028322;28;19983;-62
2023/02/13 02:18:55;;;;;;;;;;;;;;;-144.99;100.00;52545.94;5029638;28;20186;-62
2023/02/13 02:21:39;;;;;;;;;;;;;;;-144.99;100.00;52533.69;5033849;28;20071;-62
2023/02/13 02:24:24;;;;;;;;;;;;;;;-144.99;100.00;52566.31;5023629;28;20327;-62
2023/02/13 02:27:10;;;;;;;;;;;;;;;-144.99;100.00;52525.56;5026159;28;19940;-64
2023/02/13 02:29:52;;;;;;;;;;;;;;;-144.99;100.00;52521.47;5026356;28;19946;-62
2023/02/13 02:32:31;;;;;;;;;;;;;;;-144.99;100.00;52564.28;5029178;28;20051;-63
2023/02/13 02:35:05;;;;;;;;;;;;;;;-144.99;100.00;52554.09;5025117;28;19984;-63
2023/02/13 02:37:45;;;;;;;;;;;;;;;-144.99;98.67;52556.13;5029516;28;19952;-63
2023/02/13 02:40:17;;;;;;;;;;;;;;;-144.99;98.12;52570.38;5028589;28;20442;-63
2023/02/13 02:42:50;;;;;;;;;;;;;;;-144.99;97.35;52541.84;5029324;28;19957;-63
2023/02/13 02:45:21;;;;;;;;;;;;;;;-144.99;96.51;52513.31;5029975;28;20011;-62
2023/02/13 02:50:40;;;;;;;;;;;;;;;-144.99;94.90;52525.56;5028445;28;19967;-63
2023/02/13 02:53:14;;;;;;;;;;;;;;;-144.99;94.88;52517.41;5027624;28;19970;-62
2023/02/13 02:55:43;;;;;;;;;;;;;;;-144.99;92.84;52525.56;5035857;28;20035;-62
2023/02/13 03:06:32;;;;;;;;;;;;;;;-144.99;91.62;52507.19;5024419;28;19944;-63
2023/02/13 03:14:31;;;;;;;;;;;;;;;-144.99;90.89;52511.28;5004484;28;19938;-67
2023/02/13 03:22:40;;;;;;;;;;;;;;;-144.99;90.38;52533.69;5029869;28;20339;-67
2023/02/13 03:25:10;;;;;;;;;;;;;;;-144.99;90.53;52545.94;5044660;28;19957;-67
2023/02/13 03:30:29;;;;;;;;;;;;;;;-144.99;90.78;52529.63;5037277;28;20007;-67
2023/02/13 03:33:00;;;;;;;;;;;;;;;-144.99;90.74;52533.69;5036205;28;21030;-67
2023/02/13 03:38:23;;;;;;;;;;;;;;;-144.99;90.40;52537.78;5032634;28;20000;-68
2023/02/13 03:43:39;;;;;;;;;;;;;;;-144.99;90.48;52511.28;5030444;28;19959;-68
2023/02/13 03:46:07;;;;;;;;;;;;;;;-144.99;90.00;52550.00;5039640;28;19943;-68
2023/02/13 03:51:24;;;;;;;;;;;;;;;-144.99;89.73;52529.63;5033179;28;19968;-63
2023/02/13 03:53:54;;;;;;;;;;;;;;;-144.99;89.65;52521.47;5037582;28;20390;-63
2023/02/13 03:59:18;;;;;;;;;;;;;;;-144.99;89.95;52513.31;5039941;28;20396;-63
2023/02/13 04:01:48;;;;;;;;;;;;;;;-144.99;90.22;52533.69;5038940;28;19953;-63
2023/02/13 04:04:19;;;;;;;;;;;;;;;-144.99;90.51;52539.81;5034682;28;20008;-63
2023/02/13 04:06:50;;;;;;;;;;;;;;;-144.99;90.55;52545.94;5041865;28;19972;-62
2023/02/13 04:09:17;;;;;;;;;;;;;;;-144.99;90.57;52517.41;5046763;28;19946;-62
2023/02/13 04:11:46;;;;;;;;;;;;;;;-144.99;90.67;52550.00;5046765;28;19994;-62
2023/02/13 04:14:16;;;;;;;;;;;;;;;-144.99;90.96;52529.63;5058750;28;19930;-66
2023/02/13 04:16:44;;;;;;;;;;;;;;;-144.99;91.04;52525.56;5050430;28;19928;-66
2023/02/13 04:19:12;;;;;;;;;;;;;;;-144.99;91.30;52550.00;5051950;28;19944;-66
2023/02/13 04:21:39;;;;;;;;;;;;;;;-144.99;91.25;52586.69;5051705;28;20340;-66
2023/02/13 04:24:08;;;;;;;;;;;;;;;-144.99;91.41;52545.94;5030810;28;20070;-65
2023/02/13 04:26:36;;;;;;;;;;;;;;;-144.99;91.37;52501.09;5032186;28;19945;-66
2023/02/13 04:29:02;;;;;;;;;;;;;;;-144.99;91.47;52550.00;5031211;28;19986;-66
2023/02/13 04:31:29;;;;;;;;;;;;;;;-144.99;91.73;52554.09;5031488;28;20001;-60
2023/02/13 04:33:55;;;;;;;;;;;;;;;-144.99;92.31;52541.84;5039578;28;20225;-59
2023/02/13 04:36:22;;;;;;;;;;;;;;;-144.99;92.42;52541.84;5033002;28;19939;-61
2023/02/13 04:38:48;;;;;;;;;;;;;;;-144.99;92.38;52517.41;5027642;28;19944;-60
2023/02/13 04:41:16;;;;;;;;;;;;;;;-144.99;92.77;52541.84;5027912;28;20331;-60
2023/02/13 04:43:43;;;;;;;;;;;;;;;-144.99;92.73;52501.09;5051620;22;20056;-64
2023/02/13 04:46:09;;;;;;;;;;;;;;;-144.99;92.84;52605.03;5046132;28;19945;-63
2023/02/13 04:48:36;;;;;;;;;;;;;;;-144.99;92.91;52529.63;5044101;28;19989;-66
2023/02/13 04:51:02;;;;;;;;;;;;;;;-144.99;92.96;52521.47;5046860;28;20035;-67
2023/02/13 04:53:29;;;;;;;;;;;;;;;-144.99;93.08;52558.16;5046226;28;19989;-66
2023/02/13 04:55:55;;;;;;;;;;;;;;;-144.99;93.15;52550.00;5048030;28;20045;-69
2023/02/13 04:58:23;;;;;;;;;;;;;;;-144.99;93.31;52537.78;5043609;28;20315;-68
2023/02/13 05:00:50;;;;;;;;;;;;;;;-144.99;93.39;52523.50;5060008;28;20001;-66
2023/02/13 05:03:16;;;;;;;;;;;;;;;-144.99;93.29;52525.56;5042754;28;20030;-68
2023/02/13 05:05:43;;;;;;;;;;;;;;;-144.99;93.40;52588.75;5041630;28;19948;-72
2023/02/13 05:08:10;;;;;;;;;;;;;;;-144.99;93.47;52550.00;5045290;28;20367;-69
2023/02/13 05:10:36;;;;;;;;;;;;;;;-144.99;93.49;52541.84;5046651;28;19999;-70
2023/02/13 05:13:03;;;;;;;;;;;;;;;-144.99;93.55;52497.00;5043694;28;19941;-70
2023/02/13 05:15:31;;;;;;;;;;;;;;;-144.99;93.54;52558.16;5052690;28;20423;-71
2023/02/13 05:17:57;;;;;;;;;;;;;;;-144.99;93.66;52537.78;5050906;28;19975;-71
2023/02/13 05:20:24;;;;;;;;;;;;;;;-144.99;93.71;52513.31;5054540;28;20067;-71
2023/02/13 05:25:36;;;;;;;;;;;;;;;-144.99;95.16;52570.38;5042137;28;19970;-71
2023/02/13 05:28:03;;;;;;;;;;;;;;;-144.99;95.25;52562.25;5044569;28;20244;-70
2023/02/13 05:30:29;;;;;;;;;;;;;;;-144.99;95.29;52525.56;5051088;28;20114;-71
2023/02/13 05:32:56;;;;;;;;;;;;;;;-144.99;95.55;52582.63;5045006;28;20580;-71
2023/02/13 05:35:23;;;;;;;;;;;;;;;-144.99;95.67;52537.78;5045942;28;19988;-70
2023/02/13 05:37:50;;;;;;;;;;;;;;;-144.99;95.81;52566.31;5047132;28;19941;-70
2023/02/13 05:40:17;;;;;;;;;;;;;;;-144.99;95.93;52523.50;5044041;28;20022;-69
2023/02/13 05:42:43;;;;;;;;;;;;;;;-144.99;96.12;52523.50;5045870;28;19969;-72
2023/02/13 05:45:10;;;;;;;;;;;;;;;-144.99;96.47;52552.03;5043479;28;20446;-73
2023/02/13 05:47:38;;;;;;;;;;;;;;;-144.99;96.74;52509.25;5044552;28;19983;-73
2023/02/13 05:50:05;;;;;;;;;;;;;;;-144.99;96.81;52533.69;5043340;28;20050;-73
2023/02/13 05:52:32;;;;;;;;;;;;;;;-144.99;96.86;52568.34;5045968;28;19947;-73
2023/02/13 05:54:58;;;;;;;;;;;;;;;-144.99;96.71;52541.84;5041873;28;20036;-73
2023/02/13 05:57:25;;;;;;;;;;;;;;;-144.99;96.54;52521.47;5045788;28;19935;-72
2023/02/13 05:59:51;;;;;;;;;;;;;;;-144.99;96.43;52547.97;5050162;28;19969;-77
2023/02/13 06:02:18;;;;;;;;;;;;;;;-144.99;96.02;52497.00;5053200;28;19932;-77
2023/02/13 06:04:46;;;;;;;;;;;;;;;-144.99;95.73;52545.94;4341528;28;10000780;-77
2023/02/13 06:07:12;;;;;;;;;;;;;;;-144.99;95.49;52578.53;5041728;28;19944;-78
2023/02/13 06:09:39;;;;;;;;;;;;;;;-144.99;95.44;52570.38;5053124;28;19959;-77
2023/02/13 06:12:05;;;;;;;;;;;;;;;-144.99;95.20;52545.94;5056124;28;19996;-77
2023/02/13 06:14:32;;;;;;;;;;;;;;;-144.99;95.19;52521.47;5048086;28;19996;-78
2023/02/13 06:17:00;;;;;;;;;;;;;;;-144.99;94.92;52558.16;5046978;28;20001;-77
2023/02/13 06:19:27;;;;;;;;;;;;;;;-144.99;94.92;52545.94;5032246;28;19987;-77
2023/02/13 06:21:54;;;;;;;;;;;;;;;-144.99;94.66;52550.00;5042161;28;20030;-78
2023/02/13 06:24:21;;;;;;;;;;;;;;;-144.99;94.67;52564.28;5039667;28;19986;-77
2023/02/13 06:26:48;;;;;;;;;;;;;;;-144.99;94.47;52580.59;5037073;28;20009;-77
2023/02/13 06:29:14;;;;;;;;;;;;;;;-144.99;93.83;52576.50;5039318;28;20115;-77
2023/02/13 06:31:41;;;;;;;;;;;;;;;-144.99;93.50;52503.13;5035066;28;20467;-77
2023/02/13 06:34:08;;;;;;;;;;;;;;;-144.99;93.27;52541.84;5044740;28;20327;-78
2023/02/13 06:36:36;;;;;;;;;;;;;;;-144.99;93.54;52566.31;5052951;28;19990;-77
2023/02/13 06:39:04;;;;;;;;;;;;;;;-144.99;93.59;52554.09;5066297;28;19994;-76
2023/02/13 06:41:30;;;;;;;;;;;;;;;-144.99;93.54;52550.00;5058524;28;19951;-77
2023/02/13 06:43:57;;;;;;;;;;;;;;;-144.99;93.73;52541.84;5061747;28;19941;-77
2023/02/13 06:46:24;;;;;;;;;;;;;;;-144.99;93.73;52570.38;5065275;28;19950;-78
2023/02/13 06:48:50;;;;;;;;;;;;;;;-144.99;93.89;52541.84;5047308;28;20039;-77
2023/02/13 06:51:17;;;;;;;;;;;;;;;-144.99;94.05;52537.78;5046906;28;19986;-78
2023/02/13 06:53:43;;;;;;;;;;;;;;;-144.99;94.10;52513.31;5039030;28;19942;-78
2023/02/13 06:56:11;;;;;;;;;;;;;;;-144.99;94.41;52550.00;5046580;28;19950;-79
2023/02/13 06:58:38;;;;;;;;;;;;;;;-144.99;94.37;52598.94;5046460;28;19947;-80
2023/02/13 07:01:05;;;;;;;;;;;;;;;-144.99;94.38;52494.97;5044499;28;20089;-79
2023/02/13 07:03:32;;;;;;;;;;;;;;;-144.99;94.24;52582.63;5050819;28;19957;-79
2023/02/13 07:05:58;;;;;;;;;;;;;;;-144.99;93.97;52537.78;5055143;28;19959;-80
2023/02/13 07:08:25;;;;;;;;;;;;;;;-144.99;94.15;52564.28;5046888;28;19953;-79
2023/02/13 07:10:52;;;;;;;;;;;;;;;-144.99;94.12;52517.41;5043622;28;20375;-79
2023/02/13 07:13:19;;;;;;;;;;;;;;;-144.99;94.25;52550.00;5042381;28;20030;-79
2023/02/13 07:15:46;;;;;;;;;;;;;;;-144.99;94.39;52529.63;5030480;28;20525;-79
2023/02/13 07:18:13;;;;;;;;;;;;;;;-144.99;94.36;52533.69;5048363;28;20426;-80
2023/02/13 07:20:39;;;;;;;;;;;;;;;-144.99;94.27;52554.09;5039395;28;20132;-79
2023/02/13 07:23:06;;;;;;;;;;;;;;;-144.99;94.22;52501.09;5034583;28;19946;-79
2023/02/13 07:25:33;;;;;;;;;;;;;;;-144.99;94.24;52562.25;5033507;28;19998;-79
2023/02/13 07:28:03;;;;;;;;;;;;;;;-144.99;94.35;52509.25;5043704;28;19945;-79
2023/02/13 07:30:31;;;;;;;;;;;;;;;-144.99;94.48;52517.41;5046245;28;20053;-79
2023/02/13 07:32:59;;;;;;;;;;;;;;;-144.99;94.51;52552.03;5054870;28;19952;-80
2023/02/13 07:35:25;;;;;;;;;;;;;;;-144.99;94.84;52562.25;5061944;28;20056;-79
2023/02/13 07:37:52;;;;;;;;;;;;;;;-144.99;95.19;52521.47;5033051;28;19943;-79
2023/02/13 07:40:19;;;;;;;;;;;;;;;-144.99;95.43;52505.16;5055276;28;19978;-80
2023/02/13 07:42:46;;;;;;;;;;;;;;;-144.99;95.72;52533.69;5042191;28;20002;-80
2023/02/13 07:45:14;;;;;;;;;;;;;;;-144.99;95.72;52556.13;5039254;28;20344;-80
2023/02/13 07:47:42;;;;;;;;;;;;;;;-144.99;95.46;52529.63;5044241;28;19951;-80
2023/02/13 07:50:08;;;;;;;;;;;;;;;-144.99;95.41;52594.84;5043777;28;19958;-80
2023/02/13 07:52:36;;;;;;;;;;;;;;;-144.99;95.44;52598.94;5058246;28;20413;-79
2023/02/13 07:55:03;;;;;;;;;;;;;;;-144.99;95.35;52537.78;4699978;28;10000406;-78
2023/02/13 07:57:30;;;;;;;;;;;;;;;-144.99;95.32;52545.94;5062460;28;19948;-78
2023/02/13 07:59:57;;;;;;;;;;;;;;;-144.99;95.21;52578.53;5049600;28;20065;-79
2023/02/13 08:02:24;;;;;;;;;;;;;;;-144.99;95.32;52537.78;5047728;28;19941;-79
2023/02/13 08:04:52;;;;;;;;;;;;;;;-144.99;95.26;52586.69;5044576;28;19968;-79
2023/02/13 08:07:18;;;;;;;;;;;;;;;-144.99;95.30;52525.56;5044281;28;20414;-78
2023/02/13 08:12:30;;;;;;;;;;;;;;;-144.99;94.52;52545.94;5040187;28;20029;-78
2023/02/13 08:14:56;;;;;;;;;;;;;;;-144.99;94.34;52527.59;5041097;28;20296;-78
2023/02/13 08:17:23;;;;;;;;;;;;;;;-144.99;94.48;52558.16;5047369;28;20023;-79
2023/02/13 08:19:49;;;;;;;;;;;;;;;-144.99;93.94;52574.47;5041986;28;19960;-79
2023/02/13 08:22:17;;;;;;;;;;;;;;;-144.99;93.96;52537.78;5042918;28;20014;-79
2023/02/13 08:24:44;;;;;;;;;;;;;;;-144.99;93.91;52562.25;5058072;28;20006;-78
2023/02/13 08:27:12;;;;;;;;;;;;;;;-144.99;93.80;52558.16;5063347;28;20007;-79
2023/02/13 08:29:38;;;;;;;;;;;;;;;-144.99;93.73;52541.84;5057974;28;19943;-78
2023/02/13 08:32:05;;;;;;;;;;;;;;;-144.99;93.44;52492.94;5053402;28;19946;-79
2023/02/13 08:34:32;;;;;;;;;;;;;;;-144.99;93.09;52533.69;5046249;28;19941;-79
2023/02/13 08:36:58;;;;;;;;;;;;;;;-144.99;93.10;52566.31;5046939;28;19946;-79
2023/02/13 08:39:26;;;;;;;;;;;;;;;-144.99;93.17;52558.16;5043655;28;19949;-78
2023/02/13 08:41:53;;;;;;;;;;;;;;;-144.99;93.24;52484.78;5043505;28;19953;-79
2023/02/13 08:44:19;;;;;;;;;;;;;;;-144.99;93.13;52566.31;5045261;28;19951;-79
2023/02/13 08:46:46;;;;;;;;;;;;;;;-144.99;93.08;52523.50;5048981;28;19992;-79
2023/02/13 08:49:13;;;;;;;;;;;;;;;-144.99;93.00;52537.78;5048226;28;20013;-79
2023/02/13 08:51:39;;;;;;;;;;;;;;;-144.99;93.08;52554.09;5042039;28;20419;-79
2023/02/13 08:54:06;;;;;;;;;;;;;;;-144.99;92.93;52519.44;5043561;28;19942;-79
2023/02/13 08:56:34;;;;;;;;;;;;;;;-144.99;93.08;52550.00;5049852;28;20010;-79
2023/02/13 08:59:00;;;;;;;;;;;;;;;-144.99;93.19;52517.41;5049192;28;20202;-78
2023/02/13 09:01:27;;;;;;;;;;;;;;;-144.99;93.01;52566.31;5046057;28;19964;-79
2023/02/13 09:03:53;;;;;;;;;;;;;;;-144.99;92.69;52603.00;5046275;28;20209;-79
2023/02/13 09:06:20;;;;;;;;;;;;;;;-144.99;92.67;52562.25;5043572;28;19969;-79
2023/02/13 09:08:47;;;;;;;;;;;;;;;-144.99;92.56;52497.00;5043955;28;19993;-79
2023/02/13 09:11:13;;;;;;;;;;;;;;;-144.99;92.58;52509.25;5046791;28;20415;-79
2023/02/13 09:13:41;;;;;;;;;;;;;;;-144.99;92.45;52521.47;5050162;28;19977;-79
2023/02/13 09:16:08;;;;;;;;;;;;;;;-144.99;92.29;52550.00;5053989;28;19949;-79
2023/02/13 09:18:35;;;;;;;;;;;;;;;-144.99;92.08;52529.63;5060045;28;19977;-79
2023/02/13 09:21:03;;;;;;;;;;;;;;;-144.99;91.80;52521.47;5054369;28;20363;-80
2023/02/13 09:23:31;;;;;;;;;;;;;;;-144.99;91.58;52533.69;5059900;28;19953;-80
2023/02/13 09:25:59;;;;;;;;;;;;;;;-144.99;91.68;52550.00;5052711;28;19974;-79
2023/02/13 09:28:25;;;;;;;;;;;;;;;-144.99;91.58;52562.25;5049451;28;19955;-80
2023/02/13 09:30:53;;;;;;;;;;;;;;;-144.99;91.60;52539.81;5049784;28;20011;-81
2023/02/13 09:33:20;;;;;;;;;;;;;;;-144.99;91.72;52570.38;5053041;28;19946;-80
2023/02/13 09:35:46;;;;;;;;;;;;;;;-144.99;91.65;52550.00;5043936;28;20221;-80
2023/02/13 09:38:13;;;;;;;;;;;;;;;-144.99;91.16;52598.94;5049768;28;20012;-80
2023/02/13 09:40:44;;;;;;;;;;;;;;;-144.99;91.05;52541.84;5046994;28;19958;-78
2023/02/13 09:43:14;;;;;;;;;;;;;;;-144.99;90.70;52517.41;5047255;28;20351;-78
2023/02/13 09:45:41;;;;;;;;;;;;;;;-144.99;90.38;52550.00;5037501;28;20225;-78
2023/02/13 09:48:15;;;;;;;;;;;;;;;-144.99;89.83;52574.47;5047257;28;19947;-78
2023/02/13 09:50:41;;;;;;;;;;;;;;;-144.99;89.79;52494.97;5041667;28;19965;-78
2023/02/13 09:53:17;;;;;;;;;;;;;;;-144.99;89.79;52552.03;5046914;28;19941;-79
2023/02/13 09:55:51;;;;;;;;;;;;;;;-144.99;89.53;52570.38;5040694;28;19969;-79
2023/02/13 09:58:21;;;;;;;;;;;;;;;-144.99;89.63;52521.47;5043459;28;20065;-79
2023/02/13 10:00:49;;;;;;;;;;;;;;;-144.99;89.29;52484.78;5041799;28;19963;-79
2023/02/13 10:03:22;;;;;;;;;;;;;;;-144.99;88.57;52521.47;5040691;28;19947;-79
2023/02/13 10:05:55;;;;;;;;;;;;;;;-144.99;88.07;52509.25;5035661;28;19997;-79
2023/02/13 10:08:29;;;;;;;;;;;;;;;-144.99;88.17;52525.56;5046273;28;19944;-79
2023/02/13 10:11:01;;;;;;;;;;;;;;;-144.99;88.15;52558.16;5046725;28;19958;-79
2023/02/13 10:13:35;;;;;;;;;;;;;;;-144.99;88.23;52582.63;5036306;28;19967;-79
2023/02/13 10:16:03;;;;;;;;;;;;;;;-144.99;87.85;52464.41;5046643;28;20017;-79
2023/02/13 10:18:37;;;;;;;;;;;;;;;-144.99;87.06;52517.41;5036754;28;19943;-79
2023/02/13 10:21:05;;;;;;;;;;;;;;;-144.99;87.35;52529.63;5042158;28;19998;-80
2023/02/13 10:23:36;;;;;;;;;;;;;;;-144.99;87.51;52545.94;5049368;28;19950;-79
2023/02/13 10:26:04;;;;;;;;;;;;;;;-144.99;87.51;52509.25;5050498;28;19962;-79
2023/02/13 10:28:35;;;;;;;;;;;;;;;-144.99;86.87;52521.47;5053433;28;19953;-80
2023/02/13 10:31:04;;;;;;;;;;;;;;;-144.99;86.67;52521.47;5050984;28;19958;-79
2023/02/13 10:33:34;;;;;;;;;;;;;;;-144.99;86.54;52570.38;5039152;28;19968;-77
2023/02/13 10:36:02;;;;;;;;;;;;;;;-144.99;86.56;52550.00;5042851;28;20405;-77
2023/02/13 10:38:30;;;;;;;;;;;;;;;-144.99;86.32;52517.41;5041846;28;19990;-77
2023/02/13 10:41:04;;;;;;;;;;;;;;;-144.99;86.21;52545.94;5028100;28;22398;-78
2023/02/13 10:43:38;;;;;;;;;;;;;;;-144.99;86.63;52537.78;5047359;28;19958;-79
2023/02/13 10:46:13;;;;;;;;;;;;;;;-144.99;87.23;52568.34;5052266;22;20023;-75
2023/02/13 10:48:55;;;;;;;;;;;;;;;-144.99;87.66;52550.00;5027924;28;19945;-75
2023/02/13 10:51:27;;;;;;;;;;;;;;;-144.99;87.37;52545.94;5029157;28;20356;-75
2023/02/13 10:53:58;;;;;;;;;;;;;;;-144.99;87.65;52529.63;5026251;28;19950;-75
2023/02/13 10:56:32;;;;;;;;;;;;;;;-144.99;87.65;52552.03;5028424;28;19986;-75
2023/02/13 10:59:05;;;;;;;;;;;;;;;-144.99;87.29;52533.69;5021585;28;19958;-74
2023/02/13 11:01:34;;;;;;;;;;;;;;;-144.99;86.84;52517.41;5029117;28;19992;-74
2023/02/13 11:04:05;;;;;;;;;;;;;;;-144.99;86.83;52550.00;5030095;28;19949;-75
2023/02/13 11:06:32;;;;;;;;;;;;;;;-144.99;86.77;52550.00;5031006;28;19957;-75
2023/02/13 11:08:58;;;;;;;;;;;;;;;-144.99;86.28;52539.81;5031427;28;19971;-75
2023/02/13 11:11:28;;;;;;;;;;;;;;;-144.99;85.89;52554.09;5028535;28;19955;-75
2023/02/13 11:14:07;;;;;;;;;;;;;;;-144.99;85.88;52531.66;5030319;28;19957;-75
2023/02/13 11:16:38;;;;;;;;;;;;;;;-144.99;85.67;52547.97;5055307;28;19969;-76
2023/02/13 11:19:06;;;;;;;;;;;;;;;-144.99;85.26;52525.56;5034442;28;19943;-75
2023/02/13 11:21:34;;;;;;;;;;;;;;;-144.99;85.15;52533.69;5028022;28;20012;-75
2023/02/13 11:24:01;;;;;;;;;;;;;;;-144.99;84.94;52513.31;5025161;28;20250;-75
2023/02/13 11:26:31;;;;;;;;;;;;;;;-144.99;84.83;52550.00;5024154;28;20049;-75
2023/02/13 11:29:00;;;;;;;;;;;;;;;-144.99;84.74;52521.47;5029328;28;20169;-75
2023/02/13 11:31:28;;;;;;;;;;;;;;;-144.99;84.44;52558.16;5018155;28;19953;-75
2023/02/13 11:33:55;;;;;;;;;;;;;;;-144.99;83.96;52574.47;5017420;28;19955;-75
2023/02/13 11:36:27;;;;;;;;;;;;;;;-144.99;83.41;52562.25;5024930;28;19990;-75
2023/02/13 11:39:00;;;;;;;;;;;;;;;-144.99;82.41;52541.84;5034686;28;20013;-74
2023/02/13 11:41:28;;;;;;;;;;;;;;;-144.99;82.18;52525.56;5021945;28;19951;-75
2023/02/13 11:44:00;;;;;;;;;;;;;;;-144.99;82.30;52497.00;5029826;28;19966;-78
2023/02/13 11:46:27;;;;;;;;;;;;;;;-144.99;81.67;52529.63;5043762;28;19959;-76
2023/02/13 11:48:58;;;;;;;;;;;;;;;-144.99;81.47;52525.56;5050207;28;19972;-76
2023/02/13 11:51:37;;;;;;;;;;;;;;;-144.99;79.97;52533.69;5041674;28;19957;-76
2023/02/13 11:54:04;;;;;;;;;;;;;;;-144.99;79.59;52564.28;5043319;28;19929;-75
2023/02/13 11:56:47;;;;;;;;;;;;;;;-144.99;79.49;52562.25;5039122;28;19939;-75
2023/02/13 11:59:14;;;;;;;;;;;;;;;-144.99;79.05;52537.78;5041539;28;19946;-75
2023/02/13 12:01:40;;;;;;;;;;;;;;;-144.99;78.77;52525.56;5029962;28;20482;-75
2023/02/13 12:04:15;;;;;;;;;;;;;;;-144.99;77.85;52539.81;5038227;28;19974;-75
2023/02/13 12:06:57;;;;;;;;;;;;;;;-144.99;77.67;52541.84;5037447;28;20152;-74
2023/02/13 12:09:23;;;;;;;;;;;;;;;-144.99;77.50;52505.16;5017802;28;19932;-75
2023/02/13 12:11:52;;;;;;;;;;;;;;;-144.99;77.25;52545.94;5023310;28;19989;-75
2023/02/13 12:14:20;;;;;;;;;;;;;;;-144.99;76.95;52517.41;5024318;28;19948;-77
2023/02/13 12:16:49;;;;;;;;;;;;;;;-144.99;77.01;52537.78;5023195;28;19950;-75
2023/02/13 12:19:19;;;;;;;;;;;;;;;-144.99;76.82;52578.53;5027244;28;19978;-75
2023/02/13 12:21:56;;;;;;;;;;;;;;;-144.99;76.92;52521.47;5022641;28;19948;-75
2023/02/13 12:24:33;;;;;;;;;;;;;;;-144.99;76.98;52521.47;5028071;28;19948;-75
2023/02/13 12:27:09;;;;;;;;;;;;;;;-144.99;76.96;52511.28;5025071;28;20013;-75
2023/02/13 12:29:55;;;;;;;;;;;;;;;-144.99;76.43;52533.69;5025373;28;19942;-75
2023/02/13 12:32:27;;;;;;;;;;;;;;;-144.99;77.07;52531.66;5027024;28;19946;-74
2023/02/13 12:35:14;;;;;;;;;;;;;;;-144.99;76.81;52550.00;5021364;28;19937;-74
2023/02/13 12:37:48;;;;;;;;;;;;;;;-144.99;76.69;52533.69;5033581;28;19952;-75
2023/02/13 12:40:30;;;;;;;;;;;;;;;-144.99;76.97;52507.19;5041001;28;19959;-75
2023/02/13 12:43:03;;;;;;;;;;;;;;;-144.99;77.04;52525.56;5026128;28;19993;-75
2023/02/13 12:45:33;;;;;;;;;;;;;;;-144.99;77.03;52521.47;5028111;28;19943;-75
2023/02/13 12:48:10;;;;;;;;;;;;;;;-144.99;77.16;52529.63;5032930;28;19959;-75
2023/02/13 12:50:43;;;;;;;;;;;;;;;-144.99;77.17;52525.56;5031516;28;20026;-75
2023/02/13 12:53:28;;;;;;;;;;;;;;;-144.99;76.66;52541.84;5021167;28;20149;-75
2023/02/13 12:56:11;;;;;;;;;;;;;;;-144.99;76.61;52513.31;5025940;28;19973;-75
2023/02/13 12:58:54;;;;;;;;;;;;;;;-144.99;76.95;52562.25;5024906;28;19940;-75
2023/02/13 13:01:26;;;;;;;;;;;;;;;-144.99;76.96;52525.56;5025064;28;20638;-74
2023/02/13 13:03:58;;;;;;;;;;;;;;;-144.99;76.83;52537.78;5023549;28;20031;-75
2023/02/13 13:06:41;;;;;;;;;;;;;;;-144.99;76.78;52541.84;5037832;28;20369;-75
2023/02/13 13:09:17;;;;;;;;;;;;;;;-144.99;76.48;52558.16;5028130;28;20007;-75
2023/02/13 13:12:05;;;;;;;;;;;;;;;-144.99;76.34;52545.94;5017586;28;19929;-75
2023/02/13 13:14:35;;;;;;;;;;;;;;;-144.99;75.92;52509.25;5036729;28;19991;-75
2023/02/13 13:17:04;;;;;;;;;;;;;;;-144.99;75.86;52533.69;5029935;28;20393;-75